Time;durP1;ratioP1;P1;durP2;ratioP2;P2;SDS_P1;SDS_P2;PMS_P1;PMS_P2;Temp;Humidity;BMP_temperature;BMP_pressure;BME280_temperature;BME280_humidity;BME280_pressure;Samples;Min_cycle;Max_cycle;Signal;HPM_P1;HPM_P2
2022/02/23 00:00:41;;;;;;;;;;;;;;;;;;5032216;28;19925;-53
2022/02/23 00:03:08;;;;;;;;;;;;;;;;;;5032539;28;19929;-52
2022/02/23 00:05:37;;;;;;;;;;;8.40;99.90;;;;;;5046954;28;19979;-52
2022/02/23 00:08:04;;;;;;;;;;;8.60;99.90;;;;;;5052276;28;19973;-52
2022/02/23 00:10:31;;;;;;;;;;;;;;;;;;5052219;28;20358;-52
2022/02/23 00:12:58;;;;;;;;;;;;;;;;;;5052664;28;19924;-52
2022/02/23 00:15:24;;;;;;;;;;;;;;;;;;5046537;28;19971;-52
2022/02/23 00:17:53;;;;;;;;;;;8.10;99.90;;;;;;5052203;28;19925;-52
2022/02/23 00:20:20;;;;;;;;;;;;;;;;;;5052100;28;20374;-53
2022/02/23 00:22:48;;;;;;;;;;;8.20;99.90;;;;;;5052140;28;20054;-52
2022/02/23 00:25:16;;;;;;;;;;;8.10;99.90;;;;;;5051760;28;19925;-52
2022/02/23 00:27:43;;;;;;;;;;;8.30;99.90;;;;;;5052469;28;20292;-52
2022/02/23 00:30:10;;;;;;;;;;;8.10;99.90;;;;;;5051423;28;20418;-52
2022/02/23 00:32:37;;;;;;;;;;;;;;;;;;5052158;28;19925;-52
2022/02/23 00:35:04;;;;;;;;;;;;;;;;;;5051545;28;20413;-53
2022/02/23 00:37:32;;;;;;;;;;;;;;;;;;5051842;28;19982;-53
2022/02/23 00:39:59;;;;;;;;;;;;;;;;;;5052260;28;19979;-52
2022/02/23 00:42:26;;;;;;;;;;;;;;;;;;5051969;28;19925;-52
2022/02/23 00:44:53;;;;;;;;;;;;;;;;;;5050320;28;19990;-52
2022/02/23 00:47:21;;;;;;;;;;;7.90;99.90;;;;;;5051693;28;19933;-52
2022/02/23 00:49:48;;;;;;;;;;;8.10;99.90;;;;;;5051717;28;19986;-52
2022/02/23 00:52:15;;;;;;;;;;;;;;;;;;5051811;28;19940;-54
2022/02/23 00:54:42;;;;;;;;;;;;;;;;;;5051061;28;19947;-52
2022/02/23 00:57:09;;;;;;;;;;;;;;;;;;5051838;28;19936;-52
2022/02/23 00:59:36;;;;;;;;;;;;;;;;;;5051445;28;19978;-52
2022/02/23 01:02:03;;;;;;;;;;;;;;;;;;5032485;28;19979;-52
2022/02/23 01:04:30;;;;;;;;;;;;;;;;;;5034988;28;19975;-51
2022/02/23 01:06:57;;;;;;;;;;;;;;;;;;5051301;28;19994;-52
2022/02/23 01:09:24;;;;;;;;;;;;;;;;;;5051355;28;19925;-53
2022/02/23 01:11:51;;;;;;;;;;;;;;;;;;5033382;28;20245;-51
2022/02/23 01:14:19;;;;;;;;;;;7.90;99.90;;;;;;5039094;28;19925;-52
2022/02/23 01:16:46;;;;;;;;;;;;;;;;;;5049354;28;20291;-53
2022/02/23 01:19:13;;;;;;;;;;;;;;;;;;5051401;28;19928;-50
2022/02/23 01:21:40;;;;;;;;;;;;;;;;;;5051022;28;19928;-50
2022/02/23 01:24:07;;;;;;;;;;;8.10;99.90;;;;;;5050170;28;20325;-50
2022/02/23 01:26:34;;;;;;;;;;;;;;;;;;5050916;28;19925;-50
2022/02/23 01:29:01;;;;;;;;;;;;;;;;;;5050030;28;19925;-50
2022/02/23 01:31:28;;;;;;;;;;;;;;;;;;5050241;28;20458;-49
2022/02/23 01:33:57;;;;;;;;;;;7.90;99.90;;;;;;5049601;28;20294;-48
2022/02/23 01:36:23;;;;;;;;;;;8.40;99.90;;;;;;5050262;28;19978;-47
2022/02/23 01:38:50;;;;;;;;;;;;;;;;;;5050590;28;20322;-50
2022/02/23 01:41:19;;;;;;;;;;;;;;;;;;5050059;28;19983;-50
2022/02/23 01:43:46;;;;;;;;;;;;;;;;;;5048830;28;19936;-50
2022/02/23 01:46:13;;;;;;;;;;;;;;;;;;5049584;28;19928;-50
2022/02/23 01:48:40;;;;;;;;;;;;;;;;;;5049896;28;19928;-50
2022/02/23 01:51:08;;;;;;;;;;;8.20;99.90;;;;;;5049880;28;20396;-50
2022/02/23 01:53:35;;;;;;;;;;;;;;;;;;5049494;28;20030;-50
2022/02/23 01:56:02;;;;;;;;;;;;;;;;;;5049984;28;19933;-50
2022/02/23 01:58:29;;;;;;;;;;;;;;;;;;5048970;28;20001;-50
2022/02/23 02:00:57;;;;;;;;;;;8.30;99.90;;;;;;5049989;28;20284;-50
2022/02/23 02:03:23;;;;;;;;;;;8.20;99.90;;;;;;5049455;28;19951;-49
2022/02/23 02:05:50;;;;;;;;;;;;;;;;;;5049506;28;20371;-50
2022/02/23 02:08:18;;;;;;;;;;;;;;;;;;5049658;28;19928;-50
2022/02/23 02:10:45;;;;;;;;;;;;;;;;;;5037102;28;19933;-50
2022/02/23 02:13:16;;;;;;;;;;;8.40;99.90;;;;;;5042321;28;20314;-50
2022/02/23 02:15:43;;;;;;;;;;;;;;;;;;5048656;28;19979;-50
2022/02/23 02:18:10;;;;;;;;;;;;;;;;;;5049442;28;19975;-50
2022/02/23 02:20:37;;;;;;;;;;;;;;;;;;5049740;28;19925;-50
2022/02/23 02:23:04;;;;;;;;;;;;;;;;;;5049207;28;20340;-50
2022/02/23 02:25:31;;;;;;;;;;;;;;;;;;5048773;28;19969;-50
2022/02/23 02:27:58;;;;;;;;;;;;;;;;;;5048960;28;19940;-50
2022/02/23 02:30:25;;;;;;;;;;;;;;;;;;5049382;28;19925;-49
2022/02/23 02:32:52;;;;;;;;;;;;;;;;;;5048820;28;19924;-49
2022/02/23 02:35:19;;;;;;;;;;;;;;;;;;5049107;28;19925;-50
2022/02/23 02:37:48;;;;;;;;;;;7.70;99.90;;;;;;5049216;28;20421;-50
2022/02/23 02:40:14;;;;;;;;;;;7.20;99.90;;;;;;5049397;28;19925;-51
2022/02/23 02:42:41;;;;;;;;;;;7.50;99.90;;;;;;5048951;28;20290;-50
2022/02/23 02:45:08;;;;;;;;;;;;;;;;;;5048910;28;19986;-50
2022/02/23 02:47:35;;;;;;;;;;;;;;;;;;5048964;28;19924;-50
2022/02/23 02:50:02;;;;;;;;;;;;;;;;;;5049393;28;19925;-50
2022/02/23 02:52:29;;;;;;;;;;;;;;;;;;5049070;28;20280;-50
2022/02/23 02:54:56;;;;;;;;;;;;;;;;;;5048891;28;19983;-50
2022/02/23 02:57:23;;;;;;;;;;;;;;;;;;5038049;28;19983;-50
2022/02/23 02:59:50;;;;;;;;;;;;;;;;;;5047819;28;19985;-51
2022/02/23 03:02:17;;;;;;;;;;;;;;;;;;5048168;28;19924;-50
2022/02/23 03:04:45;;;;;;;;;;;7.90;99.90;;;;;;5046051;28;20290;-51
2022/02/23 03:07:12;;;;;;;;;;;;;;;;;;5028950;28;19967;-48
2022/02/23 03:09:39;;;;;;;;;;;8.00;99.90;;;;;;5029145;28;19941;-48
2022/02/23 03:12:06;;;;;;;;;;;7.90;99.90;;;;;;5039363;28;19950;-49
2022/02/23 03:14:33;;;;;;;;;;;;;;;;;;5048772;28;19979;-54
2022/02/23 03:17:00;;;;;;;;;;;8.20;99.90;;;;;;5048396;28;19925;-54
2022/02/23 03:19:27;;;;;;;;;;;;;;;;;;5047059;28;19925;-54
2022/02/23 03:21:54;;;;;;;;;;;;;;;;;;5046376;28;20388;-54
2022/02/23 03:24:21;;;;;;;;;;;;;;;;;;5048796;28;19936;-54
2022/02/23 03:26:49;;;;;;;;;;;8.30;99.90;;;;;;5048642;28;19983;-54
2022/02/23 03:29:16;;;;;;;;;;;;;;;;;;5042306;28;20299;-54
2022/02/23 03:31:43;;;;;;;;;;;;;;;;;;5033080;28;19932;-54
2022/02/23 03:34:10;;;;;;;;;;;8.30;99.90;;;;;;5032617;28;19969;-54
2022/02/23 03:36:37;;;;;;;;;;;;;;;;;;5050772;28;19925;-53
2022/02/23 03:39:04;;;;;;;;;;;;;;;;;;5052899;28;19928;-54
2022/02/23 03:41:31;;;;;;;;;;;;;;;;;;5052885;28;19933;-54
2022/02/23 03:43:58;;;;;;;;;;;;;;;;;;5052301;28;19933;-54
2022/02/23 03:46:26;;;;;;;;;;;8.00;99.90;;;;;;5052450;28;19995;-54
2022/02/23 03:48:53;;;;;;;;;;;7.90;99.90;;;;;;5052511;28;19924;-54
2022/02/23 03:51:20;;;;;;;;;;;;;;;;;;5048245;28;19925;-55
2022/02/23 03:53:47;;;;;;;;;;;;;;;;;;5052239;28;19979;-54
2022/02/23 03:58:55;;;;;;;;;;;;;;;;;;5038567;28;19921;-54
2022/02/23 04:01:22;;;;;;;;;;;;;;;;;;5032370;28;20007;-54
2022/02/23 04:03:50;;;;;;;;;;;8.00;99.90;;;;;;5032180;28;19925;-54
2022/02/23 04:06:17;;;;;;;;;;;;;;;;;;5042013;28;20239;-54
2022/02/23 04:08:44;;;;;;;;;;;;;;;;;;5052132;28;19987;-54
2022/02/23 04:11:11;;;;;;;;;;;;;;;;;;5052155;28;19924;-54
2022/02/23 04:13:38;;;;;;;;;;;8.00;99.90;;;;;;5051851;28;19924;-54
2022/02/23 04:16:05;;;;;;;;;;;;;;;;;;5051882;28;19929;-54
2022/02/23 04:18:32;;;;;;;;;;;;;;;;;;5051859;28;19929;-54
2022/02/23 04:20:59;;;;;;;;;;;;;;;;;;5039624;28;20327;-53
2022/02/23 04:23:27;;;;;;;;;;;8.10;99.90;;;;;;5031627;28;19979;-54
2022/02/23 04:25:54;;;;;;;;;;;8.00;99.90;;;;;;5031707;28;19929;-54
2022/02/23 04:28:25;;;;;;;;;;;;;;;;;;5031780;28;19964;-54
2022/02/23 04:30:52;;;;;;;;;;;;;;;;;;5031697;28;19929;-54
2022/02/23 04:33:19;;;;;;;;;;;;;;;;;;5031592;28;19925;-54
2022/02/23 04:35:47;;;;;;;;;;;;;;;;;;5043678;28;19987;-54
2022/02/23 04:38:14;;;;;;;;;;;;;;;;;;5059344;22;19979;-50
2022/02/23 04:40:43;;;;;;;;;;;;;;;;;;5030327;28;20285;-49
2022/02/23 04:43:10;;;;;;;;;;;;;;;;;;5029204;28;19929;-50
2022/02/23 04:45:37;;;;;;;;;;;;;;;;;;5033091;28;19979;-50
2022/02/23 04:48:04;;;;;;;;;;;;;;;;;;5044797;28;19925;-50
2022/02/23 04:50:31;;;;;;;;;;;;;;;;;;5052701;28;19947;-50
2022/02/23 04:52:58;;;;;;;;;;;;;;;;;;5052864;28;19994;-50
2022/02/23 04:55:25;;;;;;;;;;;;;;;;;;5052855;28;19924;-50
2022/02/23 04:57:53;;;;;;;;;;;7.30;99.90;;;;;;5052710;28;19925;-50
2022/02/23 05:00:20;;;;;;;;;;;;;;;;;;5052926;28;19925;-50
2022/02/23 05:02:47;;;;;;;;;;;;;;;;;;5053075;28;19932;-50
2022/02/23 05:05:14;;;;;;;;;;;;;;;;;;5052460;28;19970;-50
2022/02/23 05:07:41;;;;;;;;;;;7.90;99.90;;;;;;5052718;28;20230;-50
2022/02/23 05:10:08;;;;;;;;;;;7.60;99.90;;;;;;5052837;28;20002;-50
2022/02/23 05:12:35;;;;;;;;;;;;;;;;;;5052834;28;20302;-50
2022/02/23 05:15:04;;;;;;;;;;;7.60;99.90;;;;;;5052264;28;19924;-51
2022/02/23 05:17:31;;;;;;;;;;;;;;;;;;5052630;28;19924;-51
2022/02/23 05:19:58;;;;;;;;;;;;;;;;;;5052331;28;20445;-50
2022/02/23 05:22:25;;;;;;;;;;;7.20;99.90;;;;;;5052639;28;20295;-52
2022/02/23 05:24:52;;;;;;;;;;;7.30;99.90;;;;;;5052281;28;19978;-52
2022/02/23 05:27:19;;;;;;;;;;;;;;;;;;5052725;28;19928;-50
2022/02/23 05:29:46;;;;;;;;;;;;;;;;;;5052487;28;20391;-50
2022/02/23 05:32:13;;;;;;;;;;;;;;;;;;5052181;28;19970;-50
2022/02/23 05:34:41;;;;;;;;;;;7.50;99.90;;;;;;5052160;28;19929;-50
2022/02/23 05:37:07;;;;;;;;;;;7.70;99.90;;;;;;5049163;28;20342;-50
2022/02/23 05:39:34;;;;;;;;;;;;;;;;;;5052063;28;20468;-50
2022/02/23 05:42:01;;;;;;;;;;;7.70;99.90;;;;;;5052341;28;19925;-50
2022/02/23 05:44:28;;;;;;;;;;;7.50;99.90;;;;;;5047260;28;20346;-50
2022/02/23 05:46:55;;;;;;;;;;;;;;;;;;5051836;28;19925;-50
2022/02/23 05:49:22;;;;;;;;;;;;;;;;;;5052143;28;19924;-50
2022/02/23 05:51:49;;;;;;;;;;;;;;;;;;5051207;28;19986;-49
2022/02/23 05:54:16;;;;;;;;;;;;;;;;;;5048098;28;20327;-49
2022/02/23 05:56:43;;;;;;;;;;;;;;;;;;5043963;28;19925;-49
2022/02/23 05:59:10;;;;;;;;;;;;;;;;;;5047346;28;19939;-50
2022/02/23 06:01:37;;;;;;;;;;;;;;;;;;5052102;28;19970;-50
2022/02/23 06:04:05;;;;;;;;;;;7.50;99.90;;;;;;5051469;28;19986;-50
2022/02/23 06:06:32;;;;;;;;;;;7.60;99.90;;;;;;5051462;28;19933;-50
2022/02/23 06:08:59;;;;;;;;;;;;;;;;;;5051284;28;20023;-50
2022/02/23 06:11:26;;;;;;;;;;;7.90;99.90;;;;;;5051615;28;20452;-50
2022/02/23 06:13:53;;;;;;;;;;;;;;;;;;5051306;28;20595;-50
2022/02/23 06:16:22;;;;;;;;;;;;;;;;;;5051534;28;19932;-50
2022/02/23 06:18:49;;;;;;;;;;;;;;;;;;5051289;28;20011;-50
2022/02/23 06:21:16;;;;;;;;;;;;;;;;;;5051418;28;20317;-50
2022/02/23 06:23:43;;;;;;;;;;;;;;;;;;5051194;28;19925;-50
2022/02/23 06:26:10;;;;;;;;;;;;;;;;;;5051143;28;19970;-50
2022/02/23 06:28:38;;;;;;;;;;;8.30;99.90;;;;;;5050920;28;19925;-50
2022/02/23 06:31:05;;;;;;;;;;;;;;;;;;5051452;28;19951;-50
2022/02/23 06:33:32;;;;;;;;;;;8.50;99.90;;;;;;5050828;28;20350;-50
2022/02/23 06:35:59;;;;;;;;;;;;;;;;;;5050878;28;19925;-50
2022/02/23 06:38:26;;;;;;;;;;;;;;;;;;5050922;28;19925;-50
2022/02/23 06:40:53;;;;;;;;;;;8.90;99.90;;;;;;5051358;28;19977;-49
2022/02/23 06:43:20;;;;;;;;;;;;;;;;;;5051076;28;20002;-50
2022/02/23 06:45:51;;;;;;;;;;;8.40;99.90;;;;;;5051525;28;19983;-50
2022/02/23 06:48:19;;;;;;;;;;;8.10;99.90;;;;;;5051780;28;19982;-50
2022/02/23 06:50:46;;;;;;;;;;;;;;;;;;5051640;28;19925;-50
2022/02/23 06:53:13;;;;;;;;;;;8.20;99.90;;;;;;5049674;28;19925;-50
2022/02/23 06:55:40;;;;;;;;;;;;;;;;;;5037363;28;19924;-50
2022/02/23 06:58:07;;;;;;;;;;;8.20;99.90;;;;;;5046793;28;19925;-50
2022/02/23 07:00:34;;;;;;;;;;;;;;;;;;5051346;28;19933;-50
2022/02/23 07:03:01;;;;;;;;;;;;;;;;;;5031769;28;19991;-50
2022/02/23 07:05:28;;;;;;;;;;;;;;;;;;5031432;28;20347;-50
2022/02/23 07:07:56;;;;;;;;;;;;;;;;;;5032402;28;19929;-50
2022/02/23 07:10:23;;;;;;;;;;;;;;;;;;5044228;28;20368;-50
2022/02/23 07:12:52;;;;;;;;;;;8.20;99.90;;;;;;5045496;28;19928;-50
2022/02/23 07:15:19;;;;;;;;;;;;;;;;;;5050308;28;20319;-49
2022/02/23 07:17:46;;;;;;;;;;;;;;;;;;5050584;28;19979;-50
2022/02/23 07:20:13;;;;;;;;;;;;;;;;;;5050568;28;19925;-50
2022/02/23 07:22:40;;;;;;;;;;;;;;;;;;5050535;28;19933;-49
2022/02/23 07:25:07;;;;;;;;;;;;;;;;;;5049895;28;19978;-50
2022/02/23 07:27:33;;;;;;;;;;;7.80;99.90;;;;;;5049983;28;19928;-50
2022/02/23 07:30:02;;;;;;;;;;;7.90;99.90;;;;;;5050431;28;19924;-50
2022/02/23 07:32:31;;;;;;;;;;;;;;;;;;5050284;28;19964;-50
2022/02/23 07:34:58;;;;;;;;;;;;;;;;;;5050415;28;19933;-50
2022/02/23 07:37:25;;;;;;;;;;;;;;;;;;5045615;28;20497;-50
2022/02/23 07:39:53;;;;;;;;;;;8.60;99.90;;;;;;5050426;28;19983;-51
2022/02/23 07:42:20;;;;;;;;;;;;;;;;;;5050245;28;19948;-50
2022/02/23 07:44:47;;;;;;;;;;;;;;;;;;5050249;28;20375;-50
2022/02/23 07:47:14;;;;;;;;;;;;;;;;;;5049828;28;19928;-50
2022/02/23 07:49:41;;;;;;;;;;;;;;;;;;5050478;28;19924;-50
2022/02/23 07:52:08;;;;;;;;;;;;;;;;;;5049945;28;19925;-50
2022/02/23 07:54:35;;;;;;;;;;;;;;;;;;5050112;28;19983;-50
2022/02/23 07:57:02;;;;;;;;;;;;;;;;;;5049991;28;20027;-50
2022/02/23 07:59:29;;;;;;;;;;;;;;;;;;5050068;28;20399;-50
2022/02/23 08:01:56;;;;;;;;;;;;;;;;;;5050136;28;19925;-50
2022/02/23 08:04:24;;;;;;;;;;;8.80;99.90;;;;;;5049780;28;19962;-50
2022/02/23 08:06:51;;;;;;;;;;;;;;;;;;5049500;28;19936;-50
2022/02/23 08:09:18;;;;;;;;;;;;;;;;;;5049951;28;19947;-50
2022/02/23 08:11:45;;;;;;;;;;;8.50;99.90;;;;;;5050067;28;19983;-50
2022/02/23 08:14:12;;;;;;;;;;;8.60;99.90;;;;;;5050814;28;19967;-50
2022/02/23 08:19:34;;;;;;;;;;;;;;;;;;5052511;28;20005;-50
2022/02/23 08:22:01;;;;;;;;;;;;;;;;;;5050035;28;20338;-50
2022/02/23 08:24:28;;;;;;;;;;;;;;;;;;5052944;28;20415;-50
2022/02/23 08:26:55;;;;;;;;;;;;;;;;;;5053179;28;19929;-49
2022/02/23 08:29:22;;;;;;;;;;;;;;;;;;5052049;28;19959;-50
2022/02/23 08:31:49;;;;;;;;;;;;;;;;;;5053338;28;20064;-49
2022/02/23 08:34:17;;;;;;;;;;;;;;;;;;5052793;28;19925;-49
2022/02/23 08:36:44;;;;;;;;;;;;;;;;;;5049366;28;20683;-49
2022/02/23 08:39:12;;;;;;;;;;;10.70;99.90;;;;;;5053001;28;19925;-49
2022/02/23 08:41:39;;;;;;;;;;;;;;;;;;5046088;28;20009;-50
2022/02/23 08:44:07;;;;;;;;;;;10.60;99.90;;;;;;5042158;28;19925;-50
2022/02/23 08:46:34;;;;;;;;;;;;;;;;;;5051886;28;19944;-49
2022/02/23 08:49:01;;;;;;;;;;;;;;;;;;5053444;28;19925;-50
2022/02/23 08:51:28;;;;;;;;;;;;;;;;;;5044912;28;19933;-49
2022/02/23 08:53:55;;;;;;;;;;;;;;;;;;5033146;28;19936;-50
2022/02/23 08:56:22;;;;;;;;;;;;;;;;;;5033179;28;19933;-50
2022/02/23 08:58:49;;;;;;;;;;;;;;;;;;5037406;28;19933;-50
2022/02/23 09:01:16;;;;;;;;;;;;;;;;;;5047835;28;20260;-50
2022/02/23 09:03:43;;;;;;;;;;;;;;;;;;5053064;28;19936;-50
2022/02/23 09:06:12;;;;;;;;;;;13.20;99.90;;;;;;5045467;28;19925;-50
2022/02/23 09:08:39;;;;;;;;;;;13.30;99.90;;;;;;5034183;28;20362;-50
2022/02/23 09:11:06;;;;;;;;;;;;;;;;;;5041329;28;20026;-51
2022/02/23 09:13:32;;;;;;;;;;;15.50;99.90;;;;;;5049694;28;19933;-51
2022/02/23 09:15:59;;;;;;;;;;;;;;;;;;5046028;28;19983;-51
2022/02/23 09:18:26;;;;;;;;;;;13.80;99.90;;;;;;5051424;28;19986;-51
2022/02/23 09:20:53;;;;;;;;;;;;;;;;;;5035973;28;20016;-51
2022/02/23 09:23:21;;;;;;;;;;;;;;;;;;5033063;28;19925;-50
2022/02/23 09:25:48;;;;;;;;;;;;;;;;;;5044283;28;20360;-51
2022/02/23 09:28:16;;;;;;;;;;;12.60;99.90;;;;;;5039641;28;19925;-51
2022/02/23 09:30:43;;;;;;;;;;;;;;;;;;5051076;28;19927;-50
2022/02/23 09:33:10;;;;;;;;;;;;;;;;;;5050203;28;20216;-51
2022/02/23 09:35:39;;;;;;;;;;;;;;;;;;5041453;28;19995;-51
2022/02/23 09:38:05;;;;;;;;;;;17.90;99.90;;;;;;5052246;28;19932;-51
2022/02/23 09:40:32;;;;;;;;;;;;;;;;;;5052296;28;19994;-51
2022/02/23 09:42:59;;;;;;;;;;;18.70;99.90;;;;;;5046971;28;19967;-51
2022/02/23 09:45:28;;;;;;;;;;;19.70;99.90;;;;;;5032386;28;19933;-51
2022/02/23 09:47:55;;;;;;;;;;;18.80;99.90;;;;;;5041974;28;20002;-51
2022/02/23 09:50:22;;;;;;;;;;;19.30;99.90;;;;;;5039313;28;19972;-51
2022/02/23 09:52:49;;;;;;;;;;;20.50;99.90;;;;;;5051783;28;19931;-51
2022/02/23 09:55:19;;;;;;;;;;;21.70;99.90;;;;;;5049027;28;19929;-50
2022/02/23 09:57:45;;;;;;;;;;;22.30;99.90;;;;;;5047827;28;19974;-51
2022/02/23 10:00:12;;;;;;;;;;;23.10;99.90;;;;;;5051110;28;20074;-50
2022/02/23 10:02:41;;;;;;;;;;;22.80;99.90;;;;;;5050736;28;19928;-50
2022/02/23 10:05:09;;;;;;;;;;;22.70;99.90;;;;;;5050522;28;19979;-50
2022/02/23 10:07:40;;;;;;;;;;;22.00;99.90;;;;;;5050429;28;19924;-50
2022/02/23 10:10:08;;;;;;;;;;;22.10;99.90;;;;;;5047324;28;20558;-50
2022/02/23 10:12:36;;;;;;;;;;;20.40;99.90;;;;;;5050703;28;19933;-50
2022/02/23 10:15:03;;;;;;;;;;;;;;;;;;5050301;28;19933;-50
2022/02/23 10:17:36;;;;;;;;;;;21.90;99.90;;;;;;5050241;28;19932;-50
2022/02/23 10:20:04;;;;;;;;;;;22.20;99.90;;;;;;5049805;28;19932;-50
2022/02/23 10:22:32;;;;;;;;;;;22.10;99.90;;;;;;5050624;28;19931;-50
2022/02/23 10:24:59;;;;;;;;;;;22.60;99.90;;;;;;5049765;28;19933;-51
2022/02/23 10:27:34;;;;;;;;;;;21.80;99.90;;;;;;5050209;28;20275;-51
2022/02/23 10:30:00;;;;;;;;;;;21.30;99.90;;;;;;5050481;28;19924;-50
2022/02/23 10:32:27;;;;;;;;;;;21.10;99.90;;;;;;5050242;28;19924;-51
2022/02/23 10:34:55;;;;;;;;;;;21.50;99.90;;;;;;5050820;28;19952;-55
2022/02/23 10:37:23;;;;;;;;;;;22.70;99.90;;;;;;5068210;22;20020;-55
2022/02/23 10:39:53;;;;;;;;;;;22.90;99.90;;;;;;5028068;28;19925;-55
2022/02/23 10:42:21;;;;;;;;;;;23.10;99.90;;;;;;5012020;28;19944;-55
2022/02/23 10:44:49;;;;;;;;;;;22.00;99.90;;;;;;5027327;28;19933;-55
2022/02/23 10:47:24;;;;;;;;;;;21.30;99.90;;;;;;5031638;28;19933;-56
2022/02/23 10:50:01;;;;;;;;;;;22.60;99.90;;;;;;5047958;28;19931;-55
2022/02/23 10:52:30;;;;;;;;;;;22.90;99.90;;;;;;5047802;28;19929;-55
2022/02/23 10:55:11;;;;;;;;;;;22.40;99.90;;;;;;5047648;28;19935;-55
2022/02/23 10:57:42;;;;;;;;;;;22.80;99.90;;;;;;5047737;28;19929;-55
2022/02/23 11:00:13;;;;;;;;;;;20.40;99.90;;;;;;5049297;28;19982;-55
2022/02/23 11:02:39;;;;;;;;;;;18.60;99.90;;;;;;5048930;28;19986;-55
2022/02/23 11:05:06;;;;;;;;;;;;;;;;;;5049290;28;19983;-55
2022/02/23 11:07:34;;;;;;;;;;;16.70;99.90;;;;;;5035628;28;19995;-55
2022/02/23 11:10:01;;;;;;;;;;;;;;;;;;5029114;28;19928;-55
2022/02/23 11:12:28;;;;;;;;;;;;;;;;;;5043785;28;20615;-55
2022/02/23 11:14:56;;;;;;;;;;;16.30;99.90;;;;;;5048916;28;20083;-54
2022/02/23 11:17:23;;;;;;;;;;;;;;;;;;5048183;28;20384;-55
2022/02/23 11:19:52;;;;;;;;;;;15.80;99.90;;;;;;5048891;28;19925;-55
2022/02/23 11:22:19;;;;;;;;;;;;;;;;;;5048658;28;19929;-55
2022/02/23 11:24:46;;;;;;;;;;;;;;;;;;5041580;28;19925;-55
2022/02/23 11:27:13;;;;;;;;;;;;;;;;;;5028806;28;19956;-55
2022/02/23 11:29:49;;;;;;;;;;;15.50;99.90;;;;;;5029482;28;20021;-55
2022/02/23 11:32:16;;;;;;;;;;;;;;;;;;5028846;28;20372;-55
2022/02/23 11:34:43;;;;;;;;;;;;;;;;;;5045196;28;19925;-55
2022/02/23 11:37:10;;;;;;;;;;;;;;;;;;5048370;28;19932;-55
2022/02/23 11:39:38;;;;;;;;;;;;;;;;;;5040184;28;19929;-55
2022/02/23 11:42:07;;;;;;;;;;;14.90;99.90;;;;;;5029095;28;19929;-55
2022/02/23 11:44:38;;;;;;;;;;;14.40;99.90;;;;;;5028934;28;19925;-55
2022/02/23 11:47:05;;;;;;;;;;;;;;;;;;5028749;28;20380;-55
2022/02/23 11:49:32;;;;;;;;;;;;;;;;;;5036061;28;19929;-55
2022/02/23 11:51:59;;;;;;;;;;;;;;;;;;5032737;28;20430;-55
2022/02/23 11:54:26;;;;;;;;;;;;;;;;;;5033606;28;20057;-55
2022/02/23 11:56:54;;;;;;;;;;;15.10;99.90;;;;;;5032943;28;19955;-54
2022/02/23 11:59:36;;;;;;;;;;;15.00;99.90;;;;;;5032607;28;20319;-55
2022/02/23 12:02:10;;;;;;;;;;;14.90;99.90;;;;;;5015916;28;19929;-55
2022/02/23 12:04:46;;;;;;;;;;;14.70;99.90;;;;;;5045240;28;19975;-55
2022/02/23 12:07:13;;;;;;;;;;;15.10;99.90;;;;;;5053024;28;19925;-55
2022/02/23 12:09:40;;;;;;;;;;;;;;;;;;5040333;28;19937;-55
2022/02/23 12:12:28;;;;;;;;;;;14.60;99.90;;;;;;5032618;28;20362;-55
2022/02/23 12:14:55;;;;;;;;;;;14.50;99.90;;;;;;5032038;28;19955;-55
2022/02/23 12:17:40;;;;;;;;;;;14.70;99.90;;;;;;5032299;28;19925;-55
2022/02/23 12:20:07;;;;;;;;;;;15.40;99.90;;;;;;5042159;28;19925;-55
2022/02/23 12:22:34;;;;;;;;;;;;;;;;;;5052219;28;20110;-55
2022/02/23 12:25:01;;;;;;;;;;;15.20;99.90;;;;;;5051159;28;19962;-54
2022/02/23 12:27:28;;;;;;;;;;;;;;;;;;5052022;28;19924;-55
2022/02/23 12:29:57;;;;;;;;;;;15.10;99.90;;;;;;5052251;28;20015;-54
2022/02/23 12:32:26;;;;;;;;;;;15.10;99.90;;;;;;5049775;28;19947;-55
2022/02/23 12:34:55;;;;;;;;;;;;;;;;;;5042085;28;20121;-55
2022/02/23 12:37:23;;;;;;;;;;;15.10;99.90;;;;;;5046766;28;19937;-55
2022/02/23 12:39:50;;;;;;;;;;;;;;;;;;5050936;28;20359;-55
2022/02/23 12:42:17;;;;;;;;;;;;;;;;;;5051716;28;19928;-54
2022/02/23 12:44:47;;;;;;;;;;;;;;;;;;5051729;28;20024;-54
2022/02/23 12:47:17;;;;;;;;;;;15.20;99.90;;;;;;5051523;28;19998;-54
2022/02/23 12:49:45;;;;;;;;;;;;;;;;;;5049400;28;19968;-54
2022/02/23 12:52:12;;;;;;;;;;;;;;;;;;5051018;28;19929;-54
2022/02/23 12:54:39;;;;;;;;;;;;;;;;;;5050274;28;19932;-54
2022/02/23 12:57:07;;;;;;;;;;;14.40;99.90;;;;;;5051443;28;20417;-54
2022/02/23 12:59:34;;;;;;;;;;;;;;;;;;5050517;28;20363;-55
2022/02/23 13:02:02;;;;;;;;;;;;;;;;;;5050314;28;19986;-54
2022/02/23 13:04:29;;;;;;;;;;;;;;;;;;5051413;28;20031;-54
2022/02/23 13:07:01;;;;;;;;;;;14.40;99.90;;;;;;5049713;28;19987;-55
2022/02/23 13:09:31;;;;;;;;;;;14.20;99.90;;;;;;5051294;28;20012;-55
2022/02/23 13:11:58;;;;;;;;;;;14.40;99.90;;;;;;5051646;28;19978;-55
2022/02/23 13:14:26;;;;;;;;;;;;;;;;;;5051256;28;19928;-55
2022/02/23 13:16:53;;;;;;;;;;;15.00;99.90;;;;;;5051205;28;19925;-55
2022/02/23 13:19:20;;;;;;;;;;;;;;;;;;5051244;28;20001;-55
2022/02/23 13:21:48;;;;;;;;;;;;;;;;;;5050083;28;20141;-55
2022/02/23 13:24:17;;;;;;;;;;;;;;;;;;5050817;28;20011;-55
2022/02/23 13:26:44;;;;;;;;;;;;;;;;;;5051178;28;20237;-55
2022/02/23 13:29:12;;;;;;;;;;;14.60;99.90;;;;;;5050914;28;19924;-54
2022/02/23 13:31:40;;;;;;;;;;;;;;;;;;5050919;28;19935;-54
2022/02/23 13:34:07;;;;;;;;;;;;;;;;;;5033197;28;19967;-54
2022/02/23 13:36:34;;;;;;;;;;;;;;;;;;5030850;28;20039;-54
2022/02/23 13:39:03;;;;;;;;;;;;;;;;;;5037449;28;19925;-54
2022/02/23 13:41:30;;;;;;;;;;;;;;;;;;5030770;28;19973;-54
2022/02/23 13:43:57;;;;;;;;;;;14.20;99.90;;;;;;5030431;28;19933;-54
2022/02/23 13:46:33;;;;;;;;;;;14.40;99.90;;;;;;5033490;28;19979;-54
2022/02/23 13:49:00;;;;;;;;;;;;;;;;;;5050450;28;19931;-54
2022/02/23 13:51:27;;;;;;;;;;;;;;;;;;5050011;28;20340;-54
2022/02/23 13:53:54;;;;;;;;;;;;;;;;;;5045516;28;20004;-54
2022/02/23 13:56:26;;;;;;;;;;;13.60;99.90;;;;;;5030341;28;19983;-54
2022/02/23 13:58:53;;;;;;;;;;;;;;;;;;5030261;28;19926;-54
2022/02/23 14:01:25;;;;;;;;;;;;;;;;;;5029875;28;20461;-54
2022/02/23 14:03:53;;;;;;;;;;;13.70;99.90;;;;;;5030035;28;19971;-54
2022/02/23 14:06:21;;;;;;;;;;;;;;;;;;5030293;28;19983;-54
2022/02/23 14:08:54;;;;;;;;;;;14.10;99.90;;;;;;5036619;28;20344;-54
2022/02/23 14:11:22;;;;;;;;;;;;;;;;;;5029551;28;19972;-54
2022/02/23 14:13:51;;;;;;;;;;;;;;;;;;5029684;28;20020;-54
2022/02/23 14:16:18;;;;;;;;;;;14.60;99.90;;;;;;5031432;28;19933;-54
2022/02/23 14:18:45;;;;;;;;;;;;;;;;;;5029998;28;19929;-54
2022/02/23 14:21:13;;;;;;;;;;;14.40;99.90;;;;;;5030699;28;20323;-54
2022/02/23 14:23:42;;;;;;;;;;;;;;;;;;5034313;28;19970;-54
2022/02/23 14:26:11;;;;;;;;;;;14.60;99.90;;;;;;5049847;28;20363;-54
2022/02/23 14:28:39;;;;;;;;;;;14.10;99.90;;;;;;5050053;28;20406;-54
2022/02/23 14:31:06;;;;;;;;;;;;;;;;;;5050276;28;19978;-54
2022/02/23 14:33:33;;;;;;;;;;;14.20;99.90;;;;;;5049599;28;19983;-54
2022/02/23 14:36:00;;;;;;;;;;;14.30;99.90;;;;;;5049777;28;19990;-54
2022/02/23 14:38:28;;;;;;;;;;;14.60;99.90;;;;;;5048815;28;19925;-54
2022/02/23 14:40:55;;;;;;;;;;;;;;;;;;5049347;28;19925;-54
2022/02/23 14:43:22;;;;;;;;;;;;;;;;;;5049638;28;20385;-54
2022/02/23 14:45:49;;;;;;;;;;;14.00;99.90;;;;;;5045444;28;20055;-54
2022/02/23 14:48:16;;;;;;;;;;;;;;;;;;5043370;28;20360;-54
2022/02/23 14:50:44;;;;;;;;;;;14.40;99.90;;;;;;5029725;28;19929;-54
2022/02/23 14:53:11;;;;;;;;;;;;;;;;;;5029873;28;19925;-54
2022/02/23 14:55:38;;;;;;;;;;;;;;;;;;5029865;28;19925;-54
2022/02/23 14:58:05;;;;;;;;;;;;;;;;;;5040567;28;19933;-54
2022/02/23 15:00:32;;;;;;;;;;;;;;;;;;5029499;28;19944;-54
2022/02/23 15:03:01;;;;;;;;;;;;;;;;;;5029734;28;19962;-54
2022/02/23 15:05:28;;;;;;;;;;;;;;;;;;5030207;28;20310;-53
2022/02/23 15:07:56;;;;;;;;;;;;;;;;;;5030876;28;19979;-54
2022/02/23 15:10:24;;;;;;;;;;;14.20;99.90;;;;;;5030233;28;20034;-54
2022/02/23 15:12:51;;;;;;;;;;;;;;;;;;5029898;28;19971;-53
2022/02/23 15:15:18;;;;;;;;;;;;;;;;;;5029505;28;19925;-54
2022/02/23 15:17:45;;;;;;;;;;;13.90;99.90;;;;;;5030630;28;19975;-54
2022/02/23 15:20:12;;;;;;;;;;;13.90;99.90;;;;;;5029917;28;19925;-53
2022/02/23 15:22:39;;;;;;;;;;;;;;;;;;5029453;28;20396;-54
2022/02/23 15:25:06;;;;;;;;;;;;;;;;;;5033556;28;19956;-54
2022/02/23 15:27:33;;;;;;;;;;;;;;;;;;5041505;28;19952;-54
2022/02/23 15:30:01;;;;;;;;;;;13.50;99.90;;;;;;5047898;28;19928;-54
2022/02/23 15:32:28;;;;;;;;;;;;;;;;;;5036567;28;19931;-54
2022/02/23 15:34:55;;;;;;;;;;;;;;;;;;5032939;28;19925;-54
2022/02/23 15:37:22;;;;;;;;;;;13.20;99.90;;;;;;5042216;28;19932;-54
2022/02/23 15:39:49;;;;;;;;;;;;;;;;;;5035969;28;19933;-54
2022/02/23 15:42:16;;;;;;;;;;;;;;;;;;5035882;28;19971;-53
2022/02/23 15:44:43;;;;;;;;;;;;;;;;;;5037443;28;20387;-53
2022/02/23 15:47:12;;;;;;;;;;;13.40;99.90;;;;;;5036221;28;19929;-54
2022/02/23 15:49:39;;;;;;;;;;;;;;;;;;5039307;28;19933;-53
2022/02/23 15:52:06;;;;;;;;;;;;;;;;;;5037469;28;20321;-54
2022/02/23 15:54:33;;;;;;;;;;;13.70;99.90;;;;;;5046706;28;19931;-54